sensor_id;sensor_type;location;lat;lon;timestamp;pressure;altitude;pressure_sealevel;temperature;humidity
27146;BME280;17980;51.744;7.190;2022-07-29T00:00:44;101198.11;;;21.56;58.27
27146;BME280;17980;51.744;7.190;2022-07-29T00:05:51;101198.88;;;21.74;58.12
27146;BME280;17980;51.744;7.190;2022-07-29T00:08:19;101187.55;;;21.55;58.30
27146;BME280;17980;51.744;7.190;2022-07-29T00:10:47;101188.78;;;21.39;59.02
27146;BME280;17980;51.744;7.190;2022-07-29T00:13:14;101188.50;;;21.58;58.60
27146;BME280;17980;51.744;7.190;2022-07-29T00:15:42;101187.02;;;21.82;58.13
27146;BME280;17980;51.744;7.190;2022-07-29T00:18:09;101183.27;;;21.53;58.70
27146;BME280;17980;51.744;7.190;2022-07-29T00:20:36;101178.54;;;21.46;58.97
27146;BME280;17980;51.744;7.190;2022-07-29T00:23:04;101179.73;;;21.55;58.86
27146;BME280;17980;51.744;7.190;2022-07-29T00:25:31;101166.34;;;21.34;59.62
27146;BME280;17980;51.744;7.190;2022-07-29T00:27:58;101165.92;;;21.44;59.26
27146;BME280;17980;51.744;7.190;2022-07-29T00:30:26;101160.79;;;21.34;59.47
27146;BME280;17980;51.744;7.190;2022-07-29T00:32:53;101157.58;;;21.24;60.02
27146;BME280;17980;51.744;7.190;2022-07-29T00:35:20;101153.25;;;21.59;59.26
27146;BME280;17980;51.744;7.190;2022-07-29T00:38:06;101153.01;;;21.33;59.92
27146;BME280;17980;51.744;7.190;2022-07-29T00:40:33;101157.84;;;20.98;60.86
27146;BME280;17980;51.744;7.190;2022-07-29T00:43:00;101154.90;;;21.20;60.54
27146;BME280;17980;51.744;7.190;2022-07-29T00:45:28;101156.63;;;21.47;59.51
27146;BME280;17980;51.744;7.190;2022-07-29T00:47:56;101154.03;;;21.12;60.44
27146;BME280;17980;51.744;7.190;2022-07-29T00:50:24;101145.39;;;21.25;60.29
27146;BME280;17980;51.744;7.190;2022-07-29T00:52:52;101140.02;;;21.03;60.96
27146;BME280;17980;51.744;7.190;2022-07-29T00:55:20;101142.83;;;21.23;60.13
27146;BME280;17980;51.744;7.190;2022-07-29T00:57:47;101138.28;;;21.46;59.88
27146;BME280;17980;51.744;7.190;2022-07-29T01:00:18;101135.14;;;21.19;60.89
27146;BME280;17980;51.744;7.190;2022-07-29T01:02:46;101125.36;;;21.49;60.05
27146;BME280;17980;51.744;7.190;2022-07-29T01:05:17;101128.30;;;21.14;60.80
27146;BME280;17980;51.744;7.190;2022-07-29T01:07:46;101132.05;;;21.38;60.55
27146;BME280;17980;51.744;7.190;2022-07-29T01:10:15;101127.84;;;21.55;59.93
27146;BME280;17980;51.744;7.190;2022-07-29T01:12:44;101123.68;;;21.55;59.95
27146;BME280;17980;51.744;7.190;2022-07-29T01:15:12;101116.47;;;21.43;60.29
27146;BME280;17980;51.744;7.190;2022-07-29T01:17:44;101120.41;;;21.11;61.44
27146;BME280;17980;51.744;7.190;2022-07-29T01:20:17;101111.25;;;21.44;60.61
27146;BME280;17980;51.744;7.190;2022-07-29T01:26:18;101102.71;;;21.32;61.19
27146;BME280;17980;51.744;7.190;2022-07-29T01:28:53;101106.51;;;21.05;61.65
27146;BME280;17980;51.744;7.190;2022-07-29T01:34:07;101091.37;;;21.07;61.98
27146;BME280;17980;51.744;7.190;2022-07-29T01:36:37;101089.62;;;20.86;62.50
27146;BME280;17980;51.744;7.190;2022-07-29T01:39:08;101090.60;;;20.96;62.37
27146;BME280;17980;51.744;7.190;2022-07-29T01:44:23;101092.95;;;20.99;62.04
27146;BME280;17980;51.744;7.190;2022-07-29T01:46:53;101093.26;;;20.93;62.23
27146;BME280;17980;51.744;7.190;2022-07-29T01:52:07;101090.73;;;20.43;64.06
27146;BME280;17980;51.744;7.190;2022-07-29T01:54:38;101085.55;;;20.58;63.74
27146;BME280;17980;51.744;7.190;2022-07-29T01:57:09;101092.16;;;20.57;63.77
27146;BME280;17980;51.744;7.190;2022-07-29T02:02:19;101082.38;;;20.30;65.04
27146;BME280;17980;51.744;7.190;2022-07-29T02:04:49;101072.37;;;19.94;65.90
27146;BME280;17980;51.744;7.190;2022-07-29T02:07:19;101067.22;;;20.08;65.70
27146;BME280;17980;51.744;7.190;2022-07-29T02:09:47;101065.05;;;20.21;65.45
27146;BME280;17980;51.744;7.190;2022-07-29T02:12:17;101060.63;;;20.09;65.75
27146;BME280;17980;51.744;7.190;2022-07-29T02:14:47;101061.97;;;20.03;65.91
27146;BME280;17980;51.744;7.190;2022-07-29T02:19:59;101058.95;;;20.15;65.96
27146;BME280;17980;51.744;7.190;2022-07-29T02:22:30;101065.75;;;20.12;65.91
27146;BME280;17980;51.744;7.190;2022-07-29T02:24:59;101063.22;;;20.42;65.03
27146;BME280;17980;51.744;7.190;2022-07-29T02:27:28;101071.00;;;20.42;64.83
27146;BME280;17980;51.744;7.190;2022-07-29T02:29:58;101064.45;;;20.26;65.19
27146;BME280;17980;51.744;7.190;2022-07-29T02:32:28;101065.24;;;20.68;63.92
27146;BME280;17980;51.744;7.190;2022-07-29T02:34:57;101069.14;;;20.87;63.43
27146;BME280;17980;51.744;7.190;2022-07-29T02:37:26;101065.86;;;21.01;62.80
27146;BME280;17980;51.744;7.190;2022-07-29T02:39:57;101069.55;;;20.77;63.48
27146;BME280;17980;51.744;7.190;2022-07-29T02:42:27;101074.86;;;20.41;64.49
27146;BME280;17980;51.744;7.190;2022-07-29T02:44:55;101064.52;;;20.46;64.35
27146;BME280;17980;51.744;7.190;2022-07-29T02:47:27;101065.78;;;20.43;64.30
27146;BME280;17980;51.744;7.190;2022-07-29T02:52:41;101060.50;;;20.24;65.12
27146;BME280;17980;51.744;7.190;2022-07-29T02:57:57;101062.77;;;20.38;64.58
27146;BME280;17980;51.744;7.190;2022-07-29T03:00:26;101060.78;;;20.67;63.45
27146;BME280;17980;51.744;7.190;2022-07-29T03:02:56;101057.91;;;20.78;63.13
27146;BME280;17980;51.744;7.190;2022-07-29T03:05:26;101066.69;;;20.57;63.69
27146;BME280;17980;51.744;7.190;2022-07-29T03:07:57;101068.54;;;21.05;62.29
27146;BME280;17980;51.744;7.190;2022-07-29T03:10:25;101072.91;;;21.10;62.02
27146;BME280;17980;51.744;7.190;2022-07-29T03:12:54;101069.92;;;21.19;61.71
27146;BME280;17980;51.744;7.190;2022-07-29T03:15:23;101068.28;;;20.80;62.99
27146;BME280;17980;51.744;7.190;2022-07-29T03:17:51;101067.20;;;20.74;63.21
27146;BME280;17980;51.744;7.190;2022-07-29T03:23:05;101054.73;;;20.57;63.63
27146;BME280;17980;51.744;7.190;2022-07-29T03:25:32;101048.97;;;20.52;63.68
27146;BME280;17980;51.744;7.190;2022-07-29T03:28:00;101053.31;;;20.43;64.00
27146;BME280;17980;51.744;7.190;2022-07-29T03:30:27;101045.27;;;20.62;63.79
27146;BME280;17980;51.744;7.190;2022-07-29T03:32:56;101049.19;;;20.57;63.47
27146;BME280;17980;51.744;7.190;2022-07-29T03:35:24;101046.84;;;20.47;63.89
27146;BME280;17980;51.744;7.190;2022-07-29T03:37:51;101050.36;;;20.52;63.72
27146;BME280;17980;51.744;7.190;2022-07-29T03:40:23;101052.58;;;20.76;62.81
27146;BME280;17980;51.744;7.190;2022-07-29T03:42:52;101054.25;;;20.64;62.95
27146;BME280;17980;51.744;7.190;2022-07-29T03:45:22;101049.59;;;20.71;62.96
27146;BME280;17980;51.744;7.190;2022-07-29T03:47:52;101053.97;;;20.70;63.09
27146;BME280;17980;51.744;7.190;2022-07-29T03:50:20;101062.56;;;20.64;62.91
27146;BME280;17980;51.744;7.190;2022-07-29T03:52:48;101062.99;;;21.05;61.83
27146;BME280;17980;51.744;7.190;2022-07-29T03:55:16;101066.94;;;21.40;60.92
27146;BME280;17980;51.744;7.190;2022-07-29T03:57:45;101075.38;;;21.23;61.02
27146;BME280;17980;51.744;7.190;2022-07-29T04:00:14;101087.13;;;21.38;60.66
27146;BME280;17980;51.744;7.190;2022-07-29T04:02:43;101089.79;;;21.36;61.23
27146;BME280;17980;51.744;7.190;2022-07-29T04:07:53;101094.13;;;20.94;62.15
27146;BME280;17980;51.744;7.190;2022-07-29T04:10:20;101088.52;;;21.38;61.20
27146;BME280;17980;51.744;7.190;2022-07-29T04:12:47;101084.45;;;21.34;60.75
27146;BME280;17980;51.744;7.190;2022-07-29T04:15:15;101095.80;;;21.59;60.35
27146;BME280;17980;51.744;7.190;2022-07-29T04:17:42;101106.89;;;21.86;59.66
27146;BME280;17980;51.744;7.190;2022-07-29T04:20:11;101096.77;;;21.62;60.05
27146;BME280;17980;51.744;7.190;2022-07-29T04:22:39;101085.31;;;21.28;61.11
27146;BME280;17980;51.744;7.190;2022-07-29T04:25:08;101090.77;;;21.59;60.08
27146;BME280;17980;51.744;7.190;2022-07-29T04:27:35;101094.42;;;21.59;60.01
27146;BME280;17980;51.744;7.190;2022-07-29T04:30:06;101102.09;;;21.71;60.05
27146;BME280;17980;51.744;7.190;2022-07-29T04:32:34;101107.39;;;21.32;61.27
27146;BME280;17980;51.744;7.190;2022-07-29T04:35:01;101101.48;;;20.97;62.10
27146;BME280;17980;51.744;7.190;2022-07-29T04:39:55;101099.09;;;20.74;62.95
27146;BME280;17980;51.744;7.190;2022-07-29T04:42:22;101102.47;;;21.21;61.77
27146;BME280;17980;51.744;7.190;2022-07-29T04:44:49;101119.28;;;20.86;62.93
27146;BME280;17980;51.744;7.190;2022-07-29T04:47:17;101118.41;;;20.54;63.98
27146;BME280;17980;51.744;7.190;2022-07-29T04:49:44;101117.23;;;20.59;63.76
27146;BME280;17980;51.744;7.190;2022-07-29T04:52:11;101115.00;;;20.83;62.90
27146;BME280;17980;51.744;7.190;2022-07-29T04:54:39;101124.13;;;21.01;62.75
27146;BME280;17980;51.744;7.190;2022-07-29T04:57:06;101141.50;;;20.92;63.14
27146;BME280;17980;51.744;7.190;2022-07-29T04:59:33;101144.60;;;20.69;63.93
27146;BME280;17980;51.744;7.190;2022-07-29T05:02:00;101159.92;;;20.83;63.60
27146;BME280;17980;51.744;7.190;2022-07-29T05:04:28;101170.98;;;21.07;62.76
27146;BME280;17980;51.744;7.190;2022-07-29T05:06:55;101167.94;;;20.95;62.91
27146;BME280;17980;51.744;7.190;2022-07-29T05:09:22;101176.65;;;21.16;62.83
27146;BME280;17980;51.744;7.190;2022-07-29T05:11:50;101164.06;;;20.65;64.43
27146;BME280;17980;51.744;7.190;2022-07-29T05:14:17;101170.70;;;20.46;66.36
27146;BME280;17980;51.744;7.190;2022-07-29T05:16:44;101155.30;;;20.20;68.16
27146;BME280;17980;51.744;7.190;2022-07-29T05:19:12;101161.77;;;19.99;70.25
27146;BME280;17980;51.744;7.190;2022-07-29T05:21:39;101156.46;;;20.15;70.28
27146;BME280;17980;51.744;7.190;2022-07-29T05:24:06;101152.55;;;19.91;71.13
27146;BME280;17980;51.744;7.190;2022-07-29T05:26:34;101149.50;;;19.97;72.11
27146;BME280;17980;51.744;7.190;2022-07-29T05:29:01;101138.98;;;19.86;71.84
27146;BME280;17980;51.744;7.190;2022-07-29T05:31:29;101141.52;;;20.16;71.43
27146;BME280;17980;51.744;7.190;2022-07-29T05:33:56;101140.34;;;20.14;72.57
27146;BME280;17980;51.744;7.190;2022-07-29T05:36:23;101136.58;;;20.22;72.08
27146;BME280;17980;51.744;7.190;2022-07-29T05:38:51;101131.55;;;19.86;73.37
27146;BME280;17980;51.744;7.190;2022-07-29T05:41:19;101123.98;;;20.19;73.02
27146;BME280;17980;51.744;7.190;2022-07-29T05:43:49;101127.55;;;19.95;74.17
27146;BME280;17980;51.744;7.190;2022-07-29T05:46:16;101133.47;;;20.21;73.20
27146;BME280;17980;51.744;7.190;2022-07-29T05:48:43;101147.42;;;20.58;71.89
27146;BME280;17980;51.744;7.190;2022-07-29T05:51:10;101146.56;;;20.75;68.98
27146;BME280;17980;51.744;7.190;2022-07-29T05:53:38;101143.31;;;20.47;70.61
27146;BME280;17980;51.744;7.190;2022-07-29T05:56:06;101141.38;;;20.06;73.15
27146;BME280;17980;51.744;7.190;2022-07-29T05:58:34;101139.50;;;19.96;72.89
27146;BME280;17980;51.744;7.190;2022-07-29T06:01:01;101137.37;;;20.16;72.89
27146;BME280;17980;51.744;7.190;2022-07-29T06:03:29;101141.00;;;20.34;71.55
27146;BME280;17980;51.744;7.190;2022-07-29T06:05:56;101146.36;;;20.84;69.79
27146;BME280;17980;51.744;7.190;2022-07-29T06:11:09;101140.79;;;20.53;69.89
27146;BME280;17980;51.744;7.190;2022-07-29T06:16:16;101135.58;;;20.36;70.99
27146;BME280;17980;51.744;7.190;2022-07-29T06:18:43;101129.70;;;20.35;70.82
27146;BME280;17980;51.744;7.190;2022-07-29T06:21:10;101127.52;;;20.41;71.61
27146;BME280;17980;51.744;7.190;2022-07-29T06:23:38;101123.45;;;20.44;71.99
27146;BME280;17980;51.744;7.190;2022-07-29T06:26:06;101121.97;;;20.41;72.41
27146;BME280;17980;51.744;7.190;2022-07-29T06:28:33;101115.21;;;20.33;72.69
27146;BME280;17980;51.744;7.190;2022-07-29T06:33:46;101113.24;;;20.27;73.32
27146;BME280;17980;51.744;7.190;2022-07-29T06:36:13;101113.61;;;20.59;72.47
27146;BME280;17980;51.744;7.190;2022-07-29T06:38:40;101107.23;;;20.83;72.21
27146;BME280;17980;51.744;7.190;2022-07-29T06:41:08;101108.33;;;20.46;72.64
27146;BME280;17980;51.744;7.190;2022-07-29T06:46:19;101117.75;;;20.76;71.52
27146;BME280;17980;51.744;7.190;2022-07-29T06:48:46;101111.91;;;20.75;71.76
27146;BME280;17980;51.744;7.190;2022-07-29T06:51:14;101104.97;;;20.75;71.89
27146;BME280;17980;51.744;7.190;2022-07-29T06:53:41;101103.62;;;21.02;71.10
27146;BME280;17980;51.744;7.190;2022-07-29T06:56:09;101108.55;;;21.07;70.72
27146;BME280;17980;51.744;7.190;2022-07-29T06:58:36;101117.14;;;20.88;71.19
27146;BME280;17980;51.744;7.190;2022-07-29T07:01:06;101126.58;;;20.69;72.64
27146;BME280;17980;51.744;7.190;2022-07-29T07:03:33;101134.53;;;20.61;71.29
27146;BME280;17980;51.744;7.190;2022-07-29T07:06:00;101135.59;;;20.85;71.24
27146;BME280;17980;51.744;7.190;2022-07-29T07:08:28;101138.06;;;20.07;74.35
27146;BME280;17980;51.744;7.190;2022-07-29T07:13:34;101134.22;;;20.19;75.40
27146;BME280;17980;51.744;7.190;2022-07-29T07:16:02;101138.84;;;19.94;76.69
27146;BME280;17980;51.744;7.190;2022-07-29T07:18:30;101134.53;;;19.85;77.49
27146;BME280;17980;51.744;7.190;2022-07-29T07:20:58;101122.22;;;19.94;76.68
27146;BME280;17980;51.744;7.190;2022-07-29T07:23:25;101126.91;;;19.93;77.50
27146;BME280;17980;51.744;7.190;2022-07-29T07:28:32;101118.09;;;19.72;79.62
27146;BME280;17980;51.744;7.190;2022-07-29T07:30:59;101111.81;;;19.96;78.80
27146;BME280;17980;51.744;7.190;2022-07-29T07:33:27;101110.89;;;20.24;77.56
27146;BME280;17980;51.744;7.190;2022-07-29T07:38:42;101115.38;;;20.49;77.65
27146;BME280;17980;51.744;7.190;2022-07-29T07:41:09;101121.81;;;20.56;76.48
27146;BME280;17980;51.744;7.190;2022-07-29T07:43:36;101124.97;;;21.02;75.39
27146;BME280;17980;51.744;7.190;2022-07-29T07:46:04;101129.70;;;20.59;76.42
27146;BME280;17980;51.744;7.190;2022-07-29T07:48:31;101121.58;;;21.13;74.38
27146;BME280;17980;51.744;7.190;2022-07-29T07:51:01;101125.28;;;21.54;72.65
27146;BME280;17980;51.744;7.190;2022-07-29T07:53:28;101130.97;;;22.19;69.32
27146;BME280;17980;51.744;7.190;2022-07-29T07:55:56;101127.43;;;22.34;68.30
27146;BME280;17980;51.744;7.190;2022-07-29T08:01:09;101149.92;;;22.56;67.50
27146;BME280;17980;51.744;7.190;2022-07-29T08:03:37;101158.69;;;21.96;69.02
27146;BME280;17980;51.744;7.190;2022-07-29T08:06:05;101160.73;;;21.85;69.97
27146;BME280;17980;51.744;7.190;2022-07-29T08:08:33;101163.30;;;21.66;71.12
27146;BME280;17980;51.744;7.190;2022-07-29T08:13:39;101163.84;;;21.79;69.82
27146;BME280;17980;51.744;7.190;2022-07-29T08:16:07;101172.70;;;21.65;70.43
27146;BME280;17980;51.744;7.190;2022-07-29T08:21:19;101189.47;;;22.64;66.56
27146;BME280;17980;51.744;7.190;2022-07-29T08:23:46;101205.03;;;22.79;65.66
27146;BME280;17980;51.744;7.190;2022-07-29T08:26:16;101198.10;;;22.95;64.16
27146;BME280;17980;51.744;7.190;2022-07-29T08:31:21;101199.57;;;23.04;64.09
27146;BME280;17980;51.744;7.190;2022-07-29T08:33:49;101195.61;;;22.80;64.19
27146;BME280;17980;51.744;7.190;2022-07-29T08:39:02;101191.76;;;22.51;64.54
27146;BME280;17980;51.744;7.190;2022-07-29T08:44:16;101182.79;;;22.72;64.34
27146;BME280;17980;51.744;7.190;2022-07-29T08:46:44;101187.44;;;22.85;63.09
27146;BME280;17980;51.744;7.190;2022-07-29T08:49:11;101187.05;;;22.81;63.64
27146;BME280;17980;51.744;7.190;2022-07-29T08:54:20;101196.03;;;23.29;63.04
27146;BME280;17980;51.744;7.190;2022-07-29T08:56:50;101193.97;;;23.49;62.21
27146;BME280;17980;51.744;7.190;2022-07-29T08:59:20;101204.55;;;23.66;61.94
27146;BME280;17980;51.744;7.190;2022-07-29T09:04:30;101210.81;;;23.45;65.11
27146;BME280;17980;51.744;7.190;2022-07-29T09:07:01;101209.06;;;23.51;64.79
27146;BME280;17980;51.744;7.190;2022-07-29T09:09:30;101203.09;;;23.63;64.27
27146;BME280;17980;51.744;7.190;2022-07-29T09:11:59;101208.30;;;23.37;64.87
27146;BME280;17980;51.744;7.190;2022-07-29T09:14:26;101193.04;;;23.46;64.84
27146;BME280;17980;51.744;7.190;2022-07-29T09:16:55;101188.81;;;23.78;64.38
27146;BME280;17980;51.744;7.190;2022-07-29T09:22:07;101190.20;;;23.21;66.41
27146;BME280;17980;51.744;7.190;2022-07-29T09:24:43;101189.13;;;22.70;67.41
27146;BME280;17980;51.744;7.190;2022-07-29T09:30:03;101181.36;;;22.85;68.34
27146;BME280;17980;51.744;7.190;2022-07-29T09:35:17;101184.53;;;22.37;73.88
27146;BME280;17980;51.744;7.190;2022-07-29T09:37:45;101181.02;;;22.62;72.50
27146;BME280;17980;51.744;7.190;2022-07-29T09:40:15;101184.42;;;22.34;73.90
27146;BME280;17980;51.744;7.190;2022-07-29T09:42:44;101175.09;;;22.74;73.25
27146;BME280;17980;51.744;7.190;2022-07-29T09:45:12;101174.47;;;22.36;74.92
27146;BME280;17980;51.744;7.190;2022-07-29T09:50:36;101180.19;;;22.55;74.76
27146;BME280;17980;51.744;7.190;2022-07-29T09:53:04;101178.23;;;22.62;75.10
27146;BME280;17980;51.744;7.190;2022-07-29T09:55:31;101187.14;;;22.55;76.23
27146;BME280;17980;51.744;7.190;2022-07-29T09:58:16;101181.95;;;22.29;77.31
27146;BME280;17980;51.744;7.190;2022-07-29T10:00:45;101175.66;;;22.04;77.29
27146;BME280;17980;51.744;7.190;2022-07-29T10:03:12;101173.20;;;22.18;77.50
27146;BME280;17980;51.744;7.190;2022-07-29T10:05:40;101167.72;;;22.28;77.29
27146;BME280;17980;51.744;7.190;2022-07-29T10:08:09;101157.48;;;22.15;77.01
27146;BME280;17980;51.744;7.190;2022-07-29T10:10:40;101166.98;;;22.23;77.01
27146;BME280;17980;51.744;7.190;2022-07-29T10:13:09;101169.13;;;22.64;75.49
27146;BME280;17980;51.744;7.190;2022-07-29T10:15:39;101176.28;;;22.69;74.72
27146;BME280;17980;51.744;7.190;2022-07-29T10:18:08;101181.60;;;22.77;75.08
27146;BME280;17980;51.744;7.190;2022-07-29T10:20:36;101174.39;;;22.63;74.71
27146;BME280;17980;51.744;7.190;2022-07-29T10:23:05;101168.31;;;22.00;77.44
27146;BME280;17980;51.744;7.190;2022-07-29T10:25:32;101162.75;;;21.60;80.30
27146;BME280;17980;51.744;7.190;2022-07-29T10:28:00;101167.14;;;21.65;81.59
27146;BME280;17980;51.744;7.190;2022-07-29T10:30:27;101162.75;;;21.60;82.77
27146;BME280;17980;51.744;7.190;2022-07-29T10:33:21;101154.28;;;21.44;81.53
27146;BME280;17980;51.744;7.190;2022-07-29T10:36:04;101153.53;;;21.40;81.61
27146;BME280;17980;51.744;7.190;2022-07-29T10:38:54;101140.70;;;21.32;83.34
27146;BME280;17980;51.744;7.190;2022-07-29T10:41:39;101130.21;;;21.07;84.41
27146;BME280;17980;51.744;7.190;2022-07-29T10:46:46;101125.46;;;20.88;86.68
27146;BME280;17980;51.744;7.190;2022-07-29T10:49:15;101132.25;;;20.72;87.80
27146;BME280;17980;51.744;7.190;2022-07-29T10:51:59;101135.80;;;20.59;89.04
27146;BME280;17980;51.744;7.190;2022-07-29T10:54:58;101132.21;;;20.96;87.76
27146;BME280;17980;51.744;7.190;2022-07-29T10:57:28;101138.48;;;20.63;86.57
27146;BME280;17980;51.744;7.190;2022-07-29T11:00:31;101143.67;;;20.79;85.71
27146;BME280;17980;51.744;7.190;2022-07-29T11:02:59;101137.47;;;21.15;84.50
27146;BME280;17980;51.744;7.190;2022-07-29T11:05:27;101132.14;;;21.07;85.57
27146;BME280;17980;51.744;7.190;2022-07-29T11:08:19;101126.19;;;21.30;83.83
27146;BME280;17980;51.744;7.190;2022-07-29T11:10:50;101129.22;;;21.75;81.56
27146;BME280;17980;51.744;7.190;2022-07-29T11:13:47;101131.78;;;21.90;80.29
27146;BME280;17980;51.744;7.190;2022-07-29T11:16:17;101136.18;;;22.31;78.74
27146;BME280;17980;51.744;7.190;2022-07-29T11:24:30;101155.64;;;22.90;75.26
27146;BME280;17980;51.744;7.190;2022-07-29T11:27:16;101157.14;;;22.93;74.18
27146;BME280;17980;51.744;7.190;2022-07-29T11:29:52;101163.91;;;23.03;74.71
27146;BME280;17980;51.744;7.190;2022-07-29T11:32:22;101162.94;;;22.62;74.87
27146;BME280;17980;51.744;7.190;2022-07-29T11:35:10;101166.05;;;22.63;74.21
27146;BME280;17980;51.744;7.190;2022-07-29T11:37:38;101163.91;;;22.81;74.87
27146;BME280;17980;51.744;7.190;2022-07-29T11:40:14;101158.89;;;22.58;75.83
27146;BME280;17980;51.744;7.190;2022-07-29T11:42:46;101163.63;;;22.80;75.46
27146;BME280;17980;51.744;7.190;2022-07-29T11:45:21;101167.69;;;23.00;74.41
27146;BME280;17980;51.744;7.190;2022-07-29T11:47:55;101169.30;;;22.98;74.08
27146;BME280;17980;51.744;7.190;2022-07-29T11:50:33;101169.45;;;22.65;75.33
27146;BME280;17980;51.744;7.190;2022-07-29T11:53:02;101168.28;;;23.15;74.99
27146;BME280;17980;51.744;7.190;2022-07-29T11:55:30;101161.64;;;23.16;74.98
27146;BME280;17980;51.744;7.190;2022-07-29T11:58:01;101158.45;;;22.83;75.53
27146;BME280;17980;51.744;7.190;2022-07-29T12:00:30;101160.61;;;23.04;73.97
27146;BME280;17980;51.744;7.190;2022-07-29T12:03:00;101155.75;;;23.72;72.60
27146;BME280;17980;51.744;7.190;2022-07-29T12:05:37;101153.52;;;23.81;70.54
27146;BME280;17980;51.744;7.190;2022-07-29T12:08:09;101155.80;;;24.16;69.37
27146;BME280;17980;51.744;7.190;2022-07-29T12:10:37;101164.20;;;23.84;69.69
27146;BME280;17980;51.744;7.190;2022-07-29T12:13:05;101155.44;;;24.31;67.36
27146;BME280;17980;51.744;7.190;2022-07-29T12:15:33;101161.69;;;24.91;66.04
27146;BME280;17980;51.744;7.190;2022-07-29T12:18:19;101157.95;;;25.70;63.83
27146;BME280;17980;51.744;7.190;2022-07-29T12:20:47;101152.08;;;25.93;62.39
27146;BME280;17980;51.744;7.190;2022-07-29T12:23:15;101154.30;;;26.41;61.30
27146;BME280;17980;51.744;7.190;2022-07-29T12:25:43;101148.87;;;26.10;62.20
27146;BME280;17980;51.744;7.190;2022-07-29T12:28:13;101143.45;;;26.56;60.36
27146;BME280;17980;51.744;7.190;2022-07-29T12:30:46;101135.17;;;26.61;59.21
27146;BME280;17980;51.744;7.190;2022-07-29T12:33:17;101144.93;;;26.85;57.97
27146;BME280;17980;51.744;7.190;2022-07-29T12:35:47;101142.52;;;26.39;59.09
27146;BME280;17980;51.744;7.190;2022-07-29T12:38:16;101144.73;;;26.37;58.27
27146;BME280;17980;51.744;7.190;2022-07-29T12:40:45;101144.09;;;25.75;59.98
27146;BME280;17980;51.744;7.190;2022-07-29T12:43:15;101133.04;;;26.40;58.67
27146;BME280;17980;51.744;7.190;2022-07-29T12:45:45;101144.33;;;26.45;58.46
27146;BME280;17980;51.744;7.190;2022-07-29T12:48:15;101139.69;;;26.51;57.24
27146;BME280;17980;51.744;7.190;2022-07-29T12:50:57;101145.71;;;26.83;56.13
27146;BME280;17980;51.744;7.190;2022-07-29T12:53:25;101151.45;;;26.64;56.80
27146;BME280;17980;51.744;7.190;2022-07-29T12:55:55;101148.33;;;26.49;56.08
27146;BME280;17980;51.744;7.190;2022-07-29T12:58:31;101142.73;;;26.61;56.33
27146;BME280;17980;51.744;7.190;2022-07-29T13:03:51;101137.94;;;27.45;54.64
27146;BME280;17980;51.744;7.190;2022-07-29T13:06:39;101144.41;;;27.17;54.80
27146;BME280;17980;51.744;7.190;2022-07-29T13:09:11;101144.98;;;27.02;54.59
27146;BME280;17980;51.744;7.190;2022-07-29T13:11:43;101137.98;;;27.82;52.60
27146;BME280;17980;51.744;7.190;2022-07-29T13:14:12;101137.84;;;27.72;52.62
27146;BME280;17980;51.744;7.190;2022-07-29T13:17:03;101143.97;;;27.71;53.24
27146;BME280;17980;51.744;7.190;2022-07-29T13:22:16;101151.76;;;27.66;52.84
27146;BME280;17980;51.744;7.190;2022-07-29T13:24:51;101156.83;;;27.07;53.92
27146;BME280;17980;51.744;7.190;2022-07-29T13:30:04;101158.12;;;27.30;52.95
27146;BME280;17980;51.744;7.190;2022-07-29T13:32:32;101154.17;;;27.43;52.60
27146;BME280;17980;51.744;7.190;2022-07-29T13:35:02;101162.06;;;27.32;53.16
27146;BME280;17980;51.744;7.190;2022-07-29T13:37:30;101148.38;;;27.84;52.20
27146;BME280;17980;51.744;7.190;2022-07-29T13:39:59;101144.02;;;27.57;52.28
27146;BME280;17980;51.744;7.190;2022-07-29T13:45:16;101140.70;;;27.77;52.05
27146;BME280;17980;51.744;7.190;2022-07-29T13:47:44;101142.56;;;27.69;51.91
27146;BME280;17980;51.744;7.190;2022-07-29T13:50:11;101143.81;;;27.78;52.32
27146;BME280;17980;51.744;7.190;2022-07-29T13:52:38;101139.05;;;27.78;51.80
27146;BME280;17980;51.744;7.190;2022-07-29T13:55:08;101144.47;;;27.05;53.29
27146;BME280;17980;51.744;7.190;2022-07-29T13:57:36;101136.69;;;27.53;53.52
27146;BME280;17980;51.744;7.190;2022-07-29T14:00:04;101123.98;;;28.19;51.87
27146;BME280;17980;51.744;7.190;2022-07-29T14:02:32;101133.42;;;27.59;53.25
27146;BME280;17980;51.744;7.190;2022-07-29T14:05:00;101127.98;;;28.25;51.56
27146;BME280;17980;51.744;7.190;2022-07-29T14:07:27;101129.43;;;28.28;51.02
27146;BME280;17980;51.744;7.190;2022-07-29T14:09:54;101123.86;;;28.11;51.56
27146;BME280;17980;51.744;7.190;2022-07-29T14:12:22;101126.42;;;27.78;52.09
27146;BME280;17980;51.744;7.190;2022-07-29T14:14:49;101121.66;;;28.13;51.88
27146;BME280;17980;51.744;7.190;2022-07-29T14:17:17;101121.98;;;28.16;51.90
27146;BME280;17980;51.744;7.190;2022-07-29T14:19:44;101127.37;;;28.21;53.46
27146;BME280;17980;51.744;7.190;2022-07-29T14:22:11;101125.89;;;27.79;51.95
27146;BME280;17980;51.744;7.190;2022-07-29T14:24:39;101131.65;;;27.89;51.49
27146;BME280;17980;51.744;7.190;2022-07-29T14:27:07;101126.41;;;28.12;51.83
27146;BME280;17980;51.744;7.190;2022-07-29T14:29:34;101126.41;;;28.32;51.79
27146;BME280;17980;51.744;7.190;2022-07-29T14:32:02;101122.44;;;28.50;51.55
27146;BME280;17980;51.744;7.190;2022-07-29T14:34:30;101120.20;;;28.52;51.57
27146;BME280;17980;51.744;7.190;2022-07-29T14:36:57;101125.81;;;28.72;50.34
27146;BME280;17980;51.744;7.190;2022-07-29T14:39:24;101119.75;;;28.60;50.53
27146;BME280;17980;51.744;7.190;2022-07-29T14:41:51;101128.23;;;28.85;50.17
27146;BME280;17980;51.744;7.190;2022-07-29T14:44:19;101126.31;;;28.46;50.91
27146;BME280;17980;51.744;7.190;2022-07-29T14:46:47;101115.13;;;27.90;51.83